Time;durP1;ratioP1;P1;durP2;ratioP2;P2;SDS_P1;SDS_P2;PMS_P1;PMS_P2;Temp;Humidity;BMP_temperature;BMP_pressure;BME280_temperature;BME280_humidity;BME280_pressure;Samples;Min_cycle;Max_cycle;Signal;HPM_P1;HPM_P2
2023/08/04 00:00:29;;;;;;;12.10;7.05;;;;;;;25.37;54.99;93602.78;5044783;28;20059;-75
2023/08/04 00:02:55;;;;;;;12.05;7.25;;;;;;;25.34;54.97;93587.25;5044624;28;20025;-75
2023/08/04 00:05:21;;;;;;;11.68;7.10;;;;;;;25.28;55.42;93596.31;5043577;28;20261;-75
2023/08/04 00:07:46;;;;;;;11.88;8.63;;;;;;;25.26;55.50;93601.41;5044905;28;20021;-76
2023/08/04 00:10:12;;;;;;;11.02;7.20;;;;;;;25.18;56.01;93601.50;5043330;28;20037;-76
2023/08/04 00:12:37;;;;;;;11.82;8.23;;;;;;;25.17;56.45;93599.16;5044546;28;20029;-76
2023/08/04 00:15:04;;;;;;;10.05;7.25;;;;;;;25.20;56.39;93601.84;5044452;28;20223;-76
2023/08/04 00:17:29;;;;;;;14.00;8.55;;;;;;;25.11;56.83;93601.59;5044532;28;20251;-76
2023/08/04 00:19:55;;;;;;;11.93;7.55;;;;;;;25.04;57.20;93604.44;5044375;28;20044;-76
2023/08/04 00:22:21;;;;;;;11.95;7.57;;;;;;;25.00;57.54;93603.72;5043231;28;20030;-76
2023/08/04 00:24:46;;;;;;;10.20;7.88;;;;;;;24.95;57.40;93591.31;5044296;28;20196;-76
2023/08/04 00:27:12;;;;;;;12.13;7.78;;;;;;;24.98;57.56;93595.16;5044294;28;20021;-76
2023/08/04 00:29:37;;;;;;;11.10;7.93;;;;;;;24.99;57.45;93593.97;5044277;28;20021;-76
2023/08/04 00:32:03;;;;;;;11.32;7.97;;;;;;;24.98;57.71;93595.16;5042915;28;20262;-76
2023/08/04 00:34:28;;;;;;;11.35;7.28;;;;;;;25.00;57.22;93590.09;5042843;28;20028;-76
2023/08/04 00:36:54;;;;;;;16.48;8.10;;;;;;;24.96;57.37;93598.31;5044176;28;20327;-75
2023/08/04 00:39:19;;;;;;;14.20;7.82;;;;;;;24.97;56.94;93597.13;5044168;28;20021;-75
2023/08/04 00:41:45;;;;;;;12.80;7.28;;;;;;;24.94;56.99;93608.09;5044077;28;20230;-75
2023/08/04 00:44:10;;;;;;;13.30;7.38;;;;;;;24.88;56.82;93609.72;5042813;28;20029;-75
2023/08/04 00:46:36;;;;;;;10.23;7.32;;;;;;;24.84;57.11;93601.59;5043892;28;20100;-75
2023/08/04 00:49:03;;;;;;;9.32;7.32;;;;;;;24.81;56.77;93607.84;5043980;28;20020;-75
2023/08/04 00:51:30;;;;;;;11.20;7.13;;;;;;;24.73;56.90;93607.19;5043620;28;20017;-75
2023/08/04 00:57:22;;;;;;;11.65;7.13;;;;;;;24.65;57.32;93618.56;5033728;28;20135;-76
2023/08/04 00:59:47;;;;;;;10.07;8.23;;;;;;;24.55;57.61;93607.41;5042563;28;20017;-76
2023/08/04 01:02:13;;;;;;;8.65;7.05;;;;;;;24.46;58.21;93614.50;5042373;28;20025;-76
2023/08/04 01:04:38;;;;;;;15.27;8.90;;;;;;;24.47;57.96;93605.16;5043003;28;20067;-76
2023/08/04 01:07:24;;;;;;;10.52;7.60;;;;;;;24.49;57.98;93611.75;5042383;28;20021;-76
2023/08/04 01:10:07;;;;;;;12.63;8.07;;;;;;;24.41;58.58;93605.59;5043270;28;20034;-76
2023/08/04 01:12:51;;;;;;;10.85;8.10;;;;;;;24.46;58.51;93607.09;5042227;28;20338;-76
2023/08/04 01:15:17;;;;;;;9.43;6.78;;;;;;;24.46;58.58;93601.66;5042223;28;20021;-76
2023/08/04 01:17:43;;;;;;;11.77;7.63;;;;;;;24.42;59.37;93600.91;5043434;28;20021;-76
2023/08/04 01:20:09;;;;;;;13.45;8.82;;;;;;;24.37;59.81;93606.84;5043299;28;20315;-76
2023/08/04 01:22:34;;;;;;;8.88;7.30;;;;;;;24.37;59.40;93601.38;5042081;28;20259;-75
2023/08/04 01:25:01;;;;;;;12.60;8.95;;;;;;;24.34;60.05;93602.19;5043103;28;20071;-75
2023/08/04 01:27:40;;;;;;;11.13;8.13;;;;;;;24.29;60.30;93602.66;5041832;28;20029;-75
2023/08/04 01:30:12;;;;;;;10.93;8.48;;;;;;;24.21;60.36;93597.25;5043222;28;20089;-75
2023/08/04 01:32:37;;;;;;;15.73;8.85;;;;;;;24.17;60.63;93609.38;5043120;28;20096;-75
2023/08/04 01:35:06;;;;;;;10.98;8.10;;;;;;;24.15;60.50;93607.06;5043146;28;20065;-76
2023/08/04 01:37:32;;;;;;;14.40;8.30;;;;;;;24.10;60.91;93607.53;5041792;28;20025;-76
2023/08/04 01:39:58;;;;;;;13.32;9.02;;;;;;;24.05;61.54;93599.78;5042964;28;20021;-75
2023/08/04 01:42:23;;;;;;;11.75;8.70;;;;;;;23.98;61.33;93608.81;5042827;28;20033;-75
2023/08/04 01:44:49;;;;;;;16.50;9.00;;;;;;;23.88;61.84;93606.97;5043119;28;20025;-75
2023/08/04 01:47:14;;;;;;;11.60;8.23;;;;;;;23.84;61.90;93611.66;5042903;28;20084;-75
2023/08/04 01:49:40;;;;;;;11.35;8.90;;;;;;;23.87;62.15;93620.97;5042925;28;20071;-74
2023/08/04 01:52:05;;;;;;;16.02;8.70;;;;;;;23.90;61.99;93609.28;5042648;28;20223;-74
2023/08/04 01:54:31;;;;;;;16.17;8.80;;;;;;;23.83;61.85;93604.66;5042914;28;20033;-75
2023/08/04 01:56:56;;;;;;;13.20;8.65;;;;;;;23.78;62.10;93613.28;5042692;28;20392;-74
2023/08/04 01:59:22;;;;;;;11.90;8.27;;;;;;;23.77;62.50;93612.50;5042479;28;20375;-74
2023/08/04 02:01:47;;;;;;;14.65;8.50;;;;;;;23.73;62.61;93609.03;5042808;28;20092;-75
2023/08/04 02:04:13;;;;;;;11.90;8.40;;;;;;;23.69;62.52;93610.22;5042807;28;20089;-75
2023/08/04 02:06:38;;;;;;;10.77;8.43;;;;;;;23.71;62.46;93624.97;5042734;28;20009;-75
2023/08/04 02:09:04;;;;;;;16.45;8.15;;;;;;;23.69;62.52;93627.31;5042857;28;20065;-75
2023/08/04 02:11:31;;;;;;;16.20;8.68;;;;;;;23.61;62.68;93615.72;5041269;28;20331;-75
2023/08/04 02:13:58;;;;;;;12.73;8.43;;;;;;;23.62;62.96;93633.59;5042509;28;20101;-75
2023/08/04 02:16:24;;;;;;;12.50;8.90;;;;;;;23.63;63.09;93629.69;5044222;28;20036;-75
2023/08/04 02:18:49;;;;;;;11.85;9.02;;;;;;;23.61;63.08;93623.88;5045686;28;20089;-75
2023/08/04 02:21:15;;;;;;;12.77;8.38;;;;;;;23.56;62.98;93628.97;5046630;28;20017;-75
2023/08/04 02:23:40;;;;;;;10.75;8.27;;;;;;;23.55;63.10;93632.88;5046499;28;20060;-75
2023/08/04 02:26:05;;;;;;;14.35;9.18;;;;;;;23.56;62.72;93640.63;5046634;28;20371;-75
2023/08/04 02:28:31;;;;;;;17.77;9.15;;;;;;;23.55;63.17;93638.31;5046622;28;20039;-75
2023/08/04 02:30:59;;;;;;;13.93;8.27;;;;;;;23.47;63.31;93644.97;5046447;28;20041;-75
2023/08/04 02:33:24;;;;;;;14.02;9.52;;;;;;;23.44;63.92;93644.59;5046314;28;20021;-75
2023/08/04 02:35:58;;;;;;;13.90;9.93;;;;;;;23.48;63.87;93650.03;5045234;28;20025;-75
2023/08/04 02:38:24;;;;;;;18.92;9.50;;;;;;;23.47;63.83;93645.78;5046313;28;20311;-75
2023/08/04 02:40:49;;;;;;;28.15;10.30;;;;;;;23.48;64.19;93650.03;5046448;28;20021;-75
2023/08/04 02:43:15;;;;;;;18.85;9.20;;;;;;;23.44;64.53;93635.69;5046129;28;20067;-75
2023/08/04 02:45:51;;;;;;;11.95;9.05;;;;;;;23.36;65.12;93645.81;5045094;28;20265;-75
2023/08/04 02:48:17;;;;;;;19.23;9.80;;;;;;;23.34;65.41;93644.69;5046401;28;20017;-75
2023/08/04 02:50:42;;;;;;;16.23;9.70;;;;;;;23.34;65.16;93650.88;5046220;28;20326;-75
2023/08/04 02:53:08;;;;;;;19.35;11.40;;;;;;;23.33;65.17;93638.47;5045865;28;20021;-76
2023/08/04 02:55:33;;;;;;;19.20;9.52;;;;;;;23.28;65.64;93644.34;5046066;28;20021;-76
2023/08/04 02:57:59;;;;;;;15.90;9.38;;;;;;;23.23;65.44;93655.66;5044935;28;20021;-76
2023/08/04 03:00:25;;;;;;;16.35;9.73;;;;;;;23.10;66.03;93651.84;5045764;28;20194;-75
2023/08/04 03:02:51;;;;;;;23.77;10.70;;;;;;;23.12;66.08;93649.50;5045744;28;20029;-76
2023/08/04 03:05:16;;;;;;;12.98;9.55;;;;;;;23.08;66.23;93654.19;5044917;28;20051;-76
2023/08/04 03:07:42;;;;;;;17.45;9.93;;;;;;;23.04;66.46;93648.78;5045938;28;20136;-75
2023/08/04 03:10:08;;;;;;;16.45;9.57;;;;;;;23.01;66.40;93644.88;5045601;28;20079;-75
2023/08/04 03:12:33;;;;;;;18.33;9.40;;;;;;;23.00;66.33;93645.28;5045664;28;20022;-77
2023/08/04 03:14:58;;;;;;;18.48;9.40;;;;;;;22.96;66.41;93645.28;5045620;28;20310;-76
2023/08/04 03:17:26;;;;;;;14.50;9.98;;;;;;;22.97;66.28;93649.53;5045684;28;20041;-76
2023/08/04 03:19:51;;;;;;;14.63;9.23;;;;;;;22.90;66.14;93649.59;5045486;28;20092;-76
2023/08/04 03:22:17;;;;;;;13.48;9.07;;;;;;;22.90;66.05;93644.16;5045001;28;20029;-76
2023/08/04 03:24:42;;;;;;;14.55;9.63;;;;;;;22.91;65.83;93644.94;5045496;28;20037;-76
2023/08/04 03:27:08;;;;;;;14.43;9.48;;;;;;;22.83;66.41;93649.63;5043999;28;20017;-76
2023/08/04 03:29:33;;;;;;;17.95;10.73;;;;;;;22.82;66.39;93642.66;5044764;28;20017;-76
2023/08/04 03:31:59;;;;;;;19.67;9.32;;;;;;;22.86;66.10;93643.41;5045348;28;20037;-76
2023/08/04 03:34:24;;;;;;;19.95;10.18;;;;;;;22.80;66.46;93648.47;5045264;28;20029;-76
2023/08/04 03:36:49;;;;;;;16.38;9.45;;;;;;;22.85;66.56;93650.00;5045448;28;20078;-76
2023/08/04 03:39:15;;;;;;;21.58;9.70;;;;;;;22.89;66.06;93644.56;5045431;28;20196;-76
2023/08/04 03:41:40;;;;;;;18.42;9.80;;;;;;;22.90;66.39;93646.88;5045114;28;20049;-76
2023/08/04 03:44:06;;;;;;;16.95;9.93;;;;;;;22.86;66.67;93648.84;5045181;28;20018;-76
2023/08/04 03:46:31;;;;;;;33.10;9.50;;;;;;;22.92;66.56;93643.75;5045015;28;20018;-76
2023/08/04 03:48:57;;;;;;;27.90;10.48;;;;;;;22.86;67.16;93659.72;5045070;28;20315;-75
2023/08/04 03:51:22;;;;;;;24.40;10.25;;;;;;;22.84;67.07;93653.91;5044931;28;20013;-75
2023/08/04 03:53:48;;;;;;;18.27;10.10;;;;;;;22.85;66.91;93655.44;5045164;28;20014;-76
2023/08/04 03:56:14;;;;;;;17.30;9.50;;;;;;;22.87;66.75;93653.09;5044706;28;20018;-76
2023/08/04 03:58:39;;;;;;;25.67;11.32;;;;;;;22.97;66.22;93654.97;5044797;28;20059;-74
2023/08/04 04:01:05;;;;;;;22.65;10.52;;;;;;;23.00;66.22;93653.44;5043435;28;20029;-74
2023/08/04 04:03:30;;;;;;;25.27;10.70;;;;;;;23.06;66.37;93656.50;5043594;28;20055;-74
2023/08/04 04:05:56;;;;;;;28.48;10.55;;;;;;;23.08;66.28;93656.91;5044802;28;20088;-76
2023/08/04 04:08:21;;;;;;;21.50;10.63;;;;;;;23.09;66.79;93655.72;5043621;28;20029;-76
2023/08/04 04:10:48;;;;;;;29.13;10.27;;;;;;;23.19;66.76;93661.09;5044684;28;20064;-76
2023/08/04 04:13:13;;;;;;;19.42;10.23;;;;;;;23.24;66.04;93659.91;5044594;28;20079;-76
2023/08/04 04:15:39;;;;;;;22.20;10.55;;;;;;;23.28;65.25;93660.66;5044383;28;20029;-77
2023/08/04 04:18:04;;;;;;;22.92;10.30;;;;;;;23.34;65.71;93659.06;5044264;28;20037;-75
2023/08/04 04:20:30;;;;;;;14.82;9.70;;;;;;;23.27;65.94;93659.13;5044361;28;20018;-75
2023/08/04 04:22:55;;;;;;;18.65;10.00;;;;;;;23.17;66.20;93662.69;5043098;28;20381;-75
2023/08/04 04:25:21;;;;;;;19.83;10.50;;;;;;;23.21;66.27;93661.47;5044363;28;20241;-75
2023/08/04 04:27:46;;;;;;;16.83;10.00;;;;;;;23.15;66.67;93652.19;5044241;28;20358;-75
2023/08/04 04:30:14;;;;;;;14.30;10.48;;;;;;;23.22;66.42;93648.66;5044130;28;20025;-77
2023/08/04 04:32:39;;;;;;;17.88;10.77;;;;;;;23.28;66.56;93647.06;5044195;28;20196;-77
2023/08/04 04:35:05;;;;;;;13.55;10.38;;;;;;;23.33;66.27;93657.53;5076195;28;20075;-75
2023/08/04 04:37:31;;;;;;;21.35;11.13;;;;;;;23.40;65.69;93662.88;5044165;28;20032;-75
2023/08/04 04:39:56;;;;;;;19.50;11.20;;;;;;;23.51;66.01;93660.13;5042792;28;20017;-76
2023/08/04 04:42:22;;;;;;;18.63;10.55;;;;;;;23.51;66.02;93659.31;5043791;28;20064;-76
2023/08/04 04:44:47;;;;;;;21.70;11.30;;;;;;;23.52;66.33;93660.88;5042809;28;20041;-75
2023/08/04 04:47:13;;;;;;;16.42;12.52;;;;;;;23.52;66.07;93671.75;5043893;28;20029;-75
2023/08/04 04:49:38;;;;;;;22.65;12.10;;;;;;;23.58;66.44;93662.00;5043728;28;20020;-75
2023/08/04 04:52:05;;;;;;;17.02;12.95;;;;;;;23.57;66.04;93668.59;5043795;28;20056;-75
2023/08/04 04:54:30;;;;;;;19.52;13.10;;;;;;;23.60;65.26;93673.25;5043510;28;20013;-75
2023/08/04 04:56:56;;;;;;;31.85;13.73;;;;;;;23.66;65.38;93677.09;5042602;28;20024;-75
2023/08/04 04:59:21;;;;;;;17.25;12.63;;;;;;;23.75;64.99;93680.13;5042447;28;20184;-77
2023/08/04 05:01:49;;;;;;;23.55;13.45;;;;;;;23.78;64.52;93678.59;5043564;28;20025;-76
2023/08/04 05:04:15;;;;;;;16.63;12.18;;;;;;;23.76;63.71;93670.78;5043852;28;20222;-76
2023/08/04 05:06:40;;;;;;;21.85;12.18;;;;;;;23.78;63.85;93678.59;5042316;28;20108;-78
2023/08/04 05:09:07;;;;;;;21.55;12.60;;;;;;;23.82;63.66;93680.09;5043386;28;20025;-78
2023/08/04 05:11:32;;;;;;;21.58;12.90;;;;;;;23.88;64.29;93679.69;5043379;28;20390;-78
2023/08/04 05:13:58;;;;;;;21.13;12.30;;;;;;;23.96;62.92;93687.38;5042086;28;20045;-79
2023/08/04 05:16:23;;;;;;;22.90;12.48;;;;;;;23.99;62.25;93677.63;5043404;28;20037;-78
2023/08/04 05:18:49;;;;;;;28.75;12.25;;;;;;;24.01;62.61;93681.47;5043388;28;20367;-77
2023/08/04 05:21:14;;;;;;;23.80;11.25;;;;;;;24.08;62.92;93691.53;5043008;28;20037;-77
2023/08/04 05:23:39;;;;;;;29.23;12.18;;;;;;;24.15;62.86;93691.47;5041900;28;20222;-77
2023/08/04 05:26:05;;;;;;;28.67;12.18;;;;;;;24.19;62.26;93684.03;5043204;28;20013;-79
2023/08/04 05:28:32;;;;;;;25.48;11.75;;;;;;;24.26;61.52;93674.25;5043078;28;20334;-78
2023/08/04 05:31:03;;;;;;;19.70;12.00;;;;;;;24.26;61.10;93679.69;5042995;28;20017;-77
2023/08/04 05:33:29;;;;;;;20.52;12.98;;;;;;;24.31;61.13;93677.31;5043202;28;20033;-77
2023/08/04 05:35:55;;;;;;;22.38;11.15;;;;;;;24.29;61.03;93670.72;5041753;28;20032;-78
2023/08/04 05:38:22;;;;;;;24.92;13.18;;;;;;;24.38;60.64;93677.25;5043051;28;20311;-80
2023/08/04 05:40:48;;;;;;;20.08;11.43;;;;;;;24.47;60.15;93684.16;5043054;28;20041;-80
2023/08/04 05:43:14;;;;;;;19.10;11.57;;;;;;;24.54;59.41;93676.69;5042966;28;20033;-79
2023/08/04 05:45:49;;;;;;;14.27;10.07;;;;;;;24.62;59.78;93680.88;5042938;28;20290;-79
2023/08/04 05:48:14;;;;;;;17.73;10.93;;;;;;;24.69;59.03;93690.94;5042965;28;20040;-77
2023/08/04 05:50:40;;;;;;;16.77;10.68;;;;;;;24.80;59.83;93685.34;5042404;28;20025;-76
2023/08/04 05:53:05;;;;;;;15.52;11.50;;;;;;;24.87;59.76;93685.25;5043048;28;20084;-74
2023/08/04 05:55:31;;;;;;;17.20;10.48;;;;;;;24.91;59.36;93680.53;5041672;28;20207;-74
2023/08/04 05:57:56;;;;;;;18.77;11.13;;;;;;;24.98;58.87;93685.13;5042636;28;20017;-74
2023/08/04 06:00:22;;;;;;;15.95;10.85;;;;;;;25.06;58.88;93683.84;5041430;28;20021;-74
2023/08/04 06:02:48;;;;;;;14.73;11.57;;;;;;;25.14;59.08;93688.03;5043096;28;20037;-73
2023/08/04 06:05:13;;;;;;;24.42;10.98;;;;;;;25.25;58.90;93682.47;5042653;28;20238;-74
2023/08/04 06:07:42;;;;;;;19.23;11.50;;;;;;;25.33;58.18;93683.91;5042729;28;20021;-74
2023/08/04 06:10:08;;;;;;;17.20;11.65;;;;;;;25.41;57.50;93685.34;5042251;28;20331;-75
2023/08/04 06:12:36;;;;;;;19.08;10.98;;;;;;;25.50;57.68;93689.50;5041572;28;20037;-75
2023/08/04 06:15:03;;;;;;;17.80;10.70;;;;;;;25.62;56.90;93683.47;5042787;28;20227;-75
2023/08/04 06:17:28;;;;;;;25.40;11.27;;;;;;;25.63;57.14;93680.34;5042567;28;20025;-75
2023/08/04 06:19:54;;;;;;;17.15;11.52;;;;;;;25.64;57.15;93686.56;5042663;28;20022;-85
2023/08/04 06:22:19;;;;;;;18.75;11.27;;;;;;;25.65;57.07;93688.13;5041926;28;20076;-85
2023/08/04 06:24:44;;;;;;;19.85;10.95;;;;;;;25.79;57.18;93687.91;5042729;28;20029;-85
2023/08/04 06:27:10;;;;;;;20.02;10.20;;;;;;;25.94;56.36;93682.22;5042717;28;20326;-85
2023/08/04 06:29:35;;;;;;;24.60;10.73;;;;;;;26.01;56.24;93687.56;5043104;28;20029;-84
2023/08/04 06:32:01;;;;;;;15.05;10.82;;;;;;;26.15;56.56;93681.84;5042554;28;20017;-84
2023/08/04 06:34:27;;;;;;;19.85;10.75;;;;;;;26.34;56.24;93688.56;5042750;28;20065;-85
2023/08/04 06:36:52;;;;;;;15.05;10.43;;;;;;;26.50;54.67;93681.63;5042858;28;20017;-84
2023/08/04 06:39:18;;;;;;;19.27;9.95;;;;;;;26.65;54.55;93677.47;5042550;28;20029;-83
2023/08/04 06:41:46;;;;;;;18.55;11.55;;;;;;;26.79;54.13;93685.38;5042624;28;20018;-83
2023/08/04 06:44:13;;;;;;;18.42;11.02;;;;;;;26.85;53.20;93676.66;5041382;28;20084;-84
2023/08/04 06:46:38;;;;;;;15.57;9.82;;;;;;;26.94;52.72;93680.38;5042731;28;20028;-81
2023/08/04 06:49:04;;;;;;;29.50;11.07;;;;;;;26.96;53.38;93680.72;5042460;28;20025;-87
2023/08/04 06:51:29;;;;;;;17.88;10.82;;;;;;;27.01;53.74;93676.75;5041074;28;20021;-82
2023/08/04 06:53:55;;;;;;;22.92;11.10;;;;;;;27.10;52.55;93676.16;5042323;28;20327;-80
2023/08/04 06:56:21;;;;;;;20.33;10.43;;;;;;;27.17;52.12;93670.53;5042152;28;20029;-81
2023/08/04 06:58:46;;;;;;;16.30;9.63;;;;;;;27.24;52.12;93675.88;5042606;28;20034;-81
2023/08/04 07:01:12;;;;;;;22.20;8.48;;;;;;;27.30;50.95;93676.94;5042081;28;20307;-85
2023/08/04 07:03:38;;;;;;;15.75;7.90;;;;;;;27.42;49.89;93673.53;5043937;28;20251;-83
2023/08/04 07:06:03;;;;;;;12.00;7.70;;;;;;;27.56;49.66;93668.91;5045917;28;20097;-82
2023/08/04 07:08:29;;;;;;;12.75;6.85;;;;;;;27.70;48.07;93673.28;5046108;28;20021;-83
2023/08/04 07:10:54;;;;;;;13.07;7.78;;;;;;;27.85;48.93;93669.00;5045679;28;20042;-83
2023/08/04 07:13:20;;;;;;;13.20;7.30;;;;;;;28.01;47.41;93662.78;5045555;28;20319;-87
2023/08/04 07:15:55;;;;;;;8.38;6.30;;;;;;;28.13;46.58;93673.03;5046145;28;20083;-82
2023/08/04 07:18:21;;;;;;;9.35;6.93;;;;;;;28.20;46.44;93667.38;5045806;28;20026;-83
2023/08/04 07:20:47;;;;;;;17.23;6.75;;;;;;;28.41;46.83;93665.28;5044740;28;20032;-86
2023/08/04 07:23:12;;;;;;;22.42;6.72;;;;;;;28.55;46.83;93675.13;5045731;28;20022;-87
2023/08/04 07:25:38;;;;;;;12.40;8.00;;;;;;;28.57;46.34;93672.72;5045942;28;20052;-86
2023/08/04 07:28:03;;;;;;;15.55;8.93;;;;;;;28.60;45.70;93669.13;5045914;28;20342;-87
2023/08/04 07:30:30;;;;;;;16.77;8.38;;;;;;;28.70;46.14;93665.31;5046067;28;20029;-89
2023/08/04 07:32:55;;;;;;;13.52;7.55;;;;;;;28.83;46.63;93675.53;5044721;28;20025;-88
2023/08/04 07:35:21;;;;;;;15.05;8.30;;;;;;;28.92;45.81;93670.19;5046096;28;20028;-86
2023/08/04 07:37:47;;;;;;;15.02;7.40;;;;;;;28.99;45.39;93664.50;5046291;28;20315;-86
2023/08/04 07:40:13;;;;;;;15.25;7.90;;;;;;;29.04;45.36;93666.69;5044642;28;20029;-86
2023/08/04 07:42:39;;;;;;;11.93;8.05;;;;;;;29.12;45.63;93670.03;5045678;28;20152;-87
2023/08/04 07:45:05;;;;;;;26.17;9.27;;;;;;;29.03;44.67;93665.16;5045334;28;20018;-81
2023/08/04 07:47:30;;;;;;;12.95;8.50;;;;;;;29.11;44.39;93660.28;5044199;28;20075;-85
2023/08/04 07:49:56;;;;;;;17.65;8.20;;;;;;;29.19;45.38;93665.09;5045189;28;20085;-81
2023/08/04 07:52:21;;;;;;;20.30;7.95;;;;;;;29.28;45.54;93656.22;5045172;28;20026;-82
2023/08/04 07:54:47;;;;;;;16.15;7.45;;;;;;;29.39;45.27;93667.66;5045089;28;20083;-83
2023/08/04 07:57:12;;;;;;;13.85;8.35;;;;;;;29.48;45.18;93656.00;5043742;28;20028;-83
2023/08/04 07:59:38;;;;;;;17.08;7.97;;;;;;;29.45;45.50;93661.59;5044878;28;20434;-83
2023/08/04 08:02:04;;;;;;;14.13;7.45;;;;;;;29.42;44.72;93660.50;5044825;28;20028;-83
2023/08/04 08:04:29;;;;;;;12.32;6.47;;;;;;;29.53;43.84;93662.91;5044945;28;20215;-82
2023/08/04 08:06:55;;;;;;;11.40;7.85;;;;;;;29.65;42.62;93662.13;5044636;28;20036;-83
2023/08/04 08:09:20;;;;;;;12.57;7.50;;;;;;;29.67;42.04;93664.44;5044662;28;20025;-82
2023/08/04 08:11:46;;;;;;;9.82;7.32;;;;;;;29.76;42.28;93659.09;5044946;28;20036;-75
2023/08/04 08:14:11;;;;;;;13.18;7.38;;;;;;;29.89;42.61;93667.31;5043065;28;20036;-76
2023/08/04 08:16:37;;;;;;;11.75;7.00;;;;;;;29.81;42.32;93658.53;5044435;28;20326;-76
2023/08/04 08:19:03;;;;;;;13.80;6.78;;;;;;;29.84;42.31;93652.16;5043510;28;20036;-74
2023/08/04 08:21:30;;;;;;;8.35;6.95;;;;;;;29.96;42.81;93651.38;5043210;28;20033;-75
2023/08/04 08:23:56;;;;;;;11.40;7.65;;;;;;;29.97;42.50;93652.13;5044205;28;20056;-74
2023/08/04 08:29:23;;;;;;;12.15;8.45;;;;;;;30.03;42.22;93649.59;5039724;28;20064;-74
2023/08/04 08:31:49;;;;;;;16.88;8.57;;;;;;;30.18;41.59;93651.41;5043843;28;20044;-74
2023/08/04 08:34:14;;;;;;;12.20;7.07;;;;;;;30.27;41.81;93650.72;5042632;28;20048;-74
2023/08/04 08:36:40;;;;;;;11.23;7.10;;;;;;;30.36;41.39;93653.56;5044037;28;20057;-74
2023/08/04 08:39:05;;;;;;;11.88;7.30;;;;;;;30.57;40.76;93652.06;5041526;28;20029;-74
2023/08/04 08:41:31;;;;;;;10.88;6.95;;;;;;;30.61;40.47;93651.94;5041373;28;20037;-74
2023/08/04 08:43:56;;;;;;;15.68;7.05;;;;;;;30.70;40.71;93651.25;5041571;28;20287;-74
2023/08/04 08:46:23;;;;;;;12.30;7.32;;;;;;;30.85;40.70;93646.00;5041352;28;20025;-74
2023/08/04 08:48:50;;;;;;;11.13;6.88;;;;;;;31.02;40.24;93644.59;5041746;28;20101;-74
2023/08/04 08:51:19;;;;;;;10.40;7.32;;;;;;;31.06;39.51;93649.94;5041877;28;20013;-74
2023/08/04 08:53:47;;;;;;;16.90;7.32;;;;;;;31.06;39.30;93636.97;5042007;28;20139;-74
2023/08/04 08:56:13;;;;;;;9.52;7.50;;;;;;;31.12;39.26;93637.94;5043197;28;20040;-74
2023/08/04 08:58:41;;;;;;;11.82;7.20;;;;;;;31.03;39.37;93635.13;5042704;28;20180;-75
2023/08/04 09:01:07;;;;;;;19.65;7.65;;;;;;;31.16;39.30;93632.25;5043747;28;20028;-74
2023/08/04 09:03:36;;;;;;;13.02;7.28;;;;;;;31.28;39.14;93642.41;5043499;28;20024;-74
2023/08/04 09:06:02;;;;;;;15.75;7.60;;;;;;;31.38;38.38;93632.22;5042394;28;20018;-74
2023/08/04 09:08:29;;;;;;;10.55;6.90;;;;;;;31.47;38.58;93632.28;5043643;28;20021;-74
2023/08/04 09:10:56;;;;;;;8.93;6.82;;;;;;;31.46;38.24;93632.75;5042230;28;20112;-75
2023/08/04 09:13:22;;;;;;;9.80;6.93;;;;;;;31.55;38.04;93630.78;5042282;28;20021;-74
2023/08/04 09:15:50;;;;;;;10.82;7.18;;;;;;;31.64;38.57;93626.53;5043580;28;20100;-74
2023/08/04 09:18:31;;;;;;;12.25;6.60;;;;;;;31.71;37.56;93621.50;5043459;28;20021;-74
2023/08/04 09:21:00;;;;;;;11.48;7.82;;;;;;;31.79;38.69;93620.00;5043449;28;20028;-74
2023/08/04 09:23:34;;;;;;;14.43;7.80;;;;;;;31.77;38.00;93618.91;5043429;28;20027;-74
2023/08/04 09:26:00;;;;;;;8.35;6.40;;;;;;;31.69;37.60;93620.41;5042620;28;20035;-74
2023/08/04 09:28:27;;;;;;;12.15;7.68;;;;;;;31.74;38.00;93620.59;5043191;28;20053;-74
2023/08/04 09:31:19;;;;;;;12.30;6.53;;;;;;;31.77;37.89;93614.19;5043224;28;20021;-74
2023/08/04 09:33:44;;;;;;;9.05;7.13;;;;;;;31.76;38.08;93618.13;5041995;28;20055;-74
2023/08/04 09:36:17;;;;;;;11.18;7.35;;;;;;;31.87;37.91;93614.19;5043032;28;20061;-74
2023/08/04 09:38:43;;;;;;;11.15;7.55;;;;;;;31.95;37.53;93620.94;5042994;28;20076;-74
2023/08/04 09:41:15;;;;;;;19.20;8.48;;;;;;;32.08;38.06;93607.81;5041746;28;20222;-74
2023/08/04 09:43:49;;;;;;;8.20;7.05;;;;;;;32.32;37.03;93607.19;5042818;28;20104;-74
2023/08/04 09:46:16;;;;;;;10.45;6.82;;;;;;;32.39;37.45;93610.41;5042929;28;20076;-74
2023/08/04 09:48:42;;;;;;;9.57;6.88;;;;;;;32.59;36.50;93589.91;5043085;28;20109;-74
2023/08/04 09:51:13;;;;;;;9.55;7.22;;;;;;;32.56;35.80;93599.84;5041578;28;20029;-74
2023/08/04 09:53:43;;;;;;;9.70;7.30;;;;;;;32.62;36.26;93596.50;5042910;28;20025;-74
2023/08/04 09:56:11;;;;;;;9.85;7.25;;;;;;;32.58;36.43;93597.41;5042941;28;20100;-74
2023/08/04 09:58:37;;;;;;;11.52;6.93;;;;;;;32.47;36.40;93591.56;5042848;28;20231;-74
2023/08/04 10:01:04;;;;;;;10.65;7.03;;;;;;;32.52;36.38;93587.44;5042596;28;20032;-74
2023/08/04 10:03:29;;;;;;;11.88;7.05;;;;;;;32.71;36.11;93594.50;5042792;28;20025;-74
2023/08/04 10:06:05;;;;;;;15.32;6.97;;;;;;;32.90;34.68;93589.69;5042629;28;20049;-74
2023/08/04 10:08:32;;;;;;;12.27;7.22;;;;;;;33.11;34.17;93581.69;5042650;28;20025;-74
2023/08/04 10:10:59;;;;;;;10.18;6.50;;;;;;;33.30;34.47;93583.16;5042470;28;20361;-74
2023/08/04 10:13:26;;;;;;;11.38;6.93;;;;;;;33.46;34.83;93589.50;5042433;28;20029;-74
2023/08/04 10:15:55;;;;;;;8.70;7.22;;;;;;;33.62;33.97;93589.16;5042756;28;20048;-74
2023/08/04 10:18:23;;;;;;;16.73;7.43;;;;;;;33.80;33.44;93585.50;5042680;28;20033;-74
2023/08/04 10:20:51;;;;;;;9.00;7.25;;;;;;;33.96;33.95;93581.56;5042570;28;20036;-74
2023/08/04 10:23:17;;;;;;;9.90;7.03;;;;;;;34.10;33.24;93589.16;5042820;28;20026;-74
2023/08/04 10:26:00;;;;;;;11.32;6.68;;;;;;;34.08;32.30;93588.09;5042505;28;20059;-74
2023/08/04 10:28:25;;;;;;;7.97;6.43;;;;;;;34.07;31.95;93584.56;5042712;28;20044;-74
2023/08/04 10:31:14;;;;;;;6.65;5.65;;;;;;;34.09;31.23;93582.09;5042541;28;20211;-74
2023/08/04 10:33:40;;;;;;;11.35;6.68;;;;;;;34.09;31.24;93582.09;5038443;28;20033;-74
2023/08/04 10:36:10;;;;;;;7.90;6.18;;;;;;;34.10;31.45;93582.88;5042552;28;20026;-74
2023/08/04 10:38:46;;;;;;;15.63;7.15;;;;;;;34.25;31.58;93574.63;5045727;28;20025;-74
2023/08/04 10:41:12;;;;;;;8.38;6.10;;;;;;;34.37;30.77;93571.59;5046181;28;20373;-74
2023/08/04 10:43:39;;;;;;;10.48;6.70;;;;;;;34.47;29.51;93563.22;5046321;28;20037;-74
2023/08/04 10:46:10;;;;;;;11.80;7.50;;;;;;;34.56;29.48;93565.88;5046394;28;20040;-74
2023/08/04 10:48:38;;;;;;;11.20;6.13;;;;;;;34.57;29.68;93567.44;5046083;28;20022;-74
2023/08/04 10:51:05;;;;;;;10.02;6.45;;;;;;;34.61;29.47;93562.47;5046058;28;20021;-74
2023/08/04 10:53:37;;;;;;;13.93;6.25;;;;;;;34.76;30.69;93568.78;5046167;28;20022;-74
2023/08/04 10:56:06;;;;;;;7.15;6.00;;;;;;;34.81;29.99;93570.16;5045849;28;20370;-74
2023/08/04 10:58:31;;;;;;;9.05;6.47;;;;;;;34.90;31.28;93553.44;5046170;28;20029;-74
2023/08/04 11:00:57;;;;;;;10.68;6.07;;;;;;;35.09;30.15;93550.44;5045866;28;20026;-74
2023/08/04 11:03:28;;;;;;;11.75;7.10;;;;;;;35.29;30.50;93558.84;5045964;28;20025;-75
2023/08/04 11:05:54;;;;;;;9.52;6.18;;;;;;;35.52;28.72;93545.34;5045833;28;20030;-74
2023/08/04 11:08:22;;;;;;;13.30;6.50;;;;;;;35.73;29.51;93557.22;5046035;28;20040;-74
2023/08/04 11:10:53;;;;;;;16.30;7.15;;;;;;;35.93;28.69;93548.91;5045727;28;20332;-74
2023/08/04 11:13:20;;;;;;;13.13;6.38;;;;;;;36.10;29.36;93554.66;5045747;28;20026;-74
2023/08/04 11:15:47;;;;;;;15.90;7.15;;;;;;;36.30;28.41;93559.47;5045802;28;20059;-74
2023/08/04 11:18:24;;;;;;;15.88;6.78;;;;;;;36.50;27.53;93550.34;5045666;28;20021;-74
2023/08/04 11:20:50;;;;;;;14.18;6.57;;;;;;;36.66;27.25;93545.44;5044462;28;20274;-74
2023/08/04 11:23:26;;;;;;;7.68;6.00;;;;;;;36.78;27.62;93546.31;5045843;28;20029;-74
2023/08/04 11:25:52;;;;;;;12.07;6.72;;;;;;;36.80;26.93;93535.50;5045636;28;20029;-74
2023/08/04 11:28:19;;;;;;;10.63;6.93;;;;;;;37.03;26.38;93553.13;5045579;28;20096;-74